createdAt,value
2022-09-19T00:04:53.915Z,83.36
2022-09-19T00:09:57.527Z,83.76
2022-09-19T00:15:01.940Z,84.60
2022-09-19T00:20:06.127Z,83.83
2022-09-19T00:25:10.424Z,81.38
2022-09-19T00:30:13.848Z,82.38
2022-09-19T00:35:17.044Z,83.29
2022-09-19T00:40:20.636Z,82.13
2022-09-19T00:45:24.421Z,83.85
2022-09-19T00:50:32.082Z,83.88
2022-09-19T00:55:35.368Z,84.67
2022-09-19T01:00:39.237Z,86.16
2022-09-19T01:06:17.370Z,85.89
2022-09-19T01:11:32.664Z,86.66
2022-09-19T01:16:44.316Z,87.75
2022-09-19T01:21:53.209Z,88.61
2022-09-19T01:27:35.116Z,87.96
2022-09-19T01:33:06.987Z,87.29
2022-09-19T01:38:15.642Z,86.37
2022-09-19T01:43:21.342Z,86.02
2022-09-19T01:48:52.052Z,86.31
2022-09-19T01:54:40.314Z,85.63
2022-09-19T01:59:56.469Z,85.94
2022-09-19T02:05:18.335Z,86.89
2022-09-19T02:10:33.878Z,86.23
2022-09-19T02:15:38.490Z,87.05
2022-09-19T02:20:46.416Z,87.76
2022-09-19T02:25:53.192Z,87.44
2022-09-19T02:30:58.087Z,87.20
2022-09-19T02:36:23.422Z,87.49
2022-09-19T02:41:37.512Z,87.24
2022-09-19T02:46:48.650Z,88.24
2022-09-19T02:52:00.302Z,87.81
2022-09-19T02:57:11.303Z,87.78
2022-09-19T03:02:24.710Z,88.27
2022-09-19T03:07:34.952Z,87.81
2022-09-19T03:12:59.364Z,87.34
2022-09-19T03:18:11.785Z,87.17
2022-09-19T03:23:21.013Z,88.14
2022-09-19T03:28:24.537Z,88.52
2022-09-19T03:33:33.391Z,88.43
2022-09-19T03:38:45.865Z,90.76
2022-09-19T03:43:55.845Z,90.98
2022-09-19T03:49:03.899Z,90.42
2022-09-19T03:54:09.133Z,90.59
2022-09-19T03:59:17.656Z,92.77
2022-09-19T04:04:22.650Z,93.40
2022-09-19T04:09:30.934Z,93.20
2022-09-19T04:14:37.112Z,91.71
2022-09-19T04:19:41.673Z,92.17
2022-09-19T04:25:17.349Z,93.33
2022-09-19T04:30:36.615Z,92.70
2022-09-19T04:35:41.717Z,93.92
2022-09-19T04:40:49.401Z,93.09
2022-09-19T04:45:53.661Z,92.24
2022-09-19T04:51:08.601Z,91.21
2022-09-19T04:56:13.371Z,88.54
2022-09-19T05:01:19.545Z,85.14
2022-09-19T05:06:24.666Z,83.10
2022-09-19T05:11:28.481Z,79.69
2022-09-19T05:16:32.280Z,79.25
2022-09-19T05:21:44.844Z,79.50
2022-09-19T05:26:48.392Z,79.80
2022-09-19T05:31:56.203Z,79.45
2022-09-19T05:37:10.514Z,78.95
2022-09-19T05:42:27.216Z,77.26
2022-09-19T05:47:30.549Z,76.09
2022-09-19T05:52:52.870Z,74.66
2022-09-19T05:57:59.671Z,72.67
2022-09-19T06:03:04.939Z,70.16
2022-09-19T06:08:09.121Z,65.09
2022-09-19T06:13:14.554Z,53.51
2022-09-19T06:18:18.099Z,50.67
2022-09-19T06:23:29.206Z,50.19
2022-09-19T06:28:32.260Z,48.52
2022-09-19T06:33:43.886Z,45.13
2022-09-19T06:38:52.910Z,44.55
2022-09-19T06:44:31.644Z,43.40
2022-09-19T06:49:37.369Z,41.41
2022-09-19T06:55:00.895Z,41.85
2022-09-19T07:00:06.051Z,49.85
2022-09-19T07:05:12.115Z,52.47
2022-09-19T07:10:22.305Z,50.53
2022-09-19T07:15:25.610Z,52.58
2022-09-19T07:20:30.530Z,56.32
2022-09-19T07:25:58.571Z,56.80
2022-09-19T07:31:03.429Z,55.38
2022-09-19T07:36:10.458Z,49.29
2022-09-19T07:41:15.290Z,47.95
2022-09-19T07:46:34.555Z,45.64
2022-09-19T07:51:56.411Z,44.17
2022-09-19T07:57:00.449Z,45.45
2022-09-19T08:02:05.249Z,47.50
2022-09-19T08:07:12.941Z,44.75
2022-09-19T08:12:17.362Z,43.03
2022-09-19T08:17:25.742Z,40.79
2022-09-19T08:22:28.803Z,38.51
2022-09-19T08:27:39.380Z,40.95
2022-09-19T08:32:46.704Z,40.52
2022-09-19T08:37:55.670Z,39.38
2022-09-19T08:43:12.233Z,38.20
2022-09-19T08:48:39.534Z,38.49
2022-09-19T08:53:47.670Z,37.29
2022-09-19T08:59:03.302Z,38.23
2022-09-19T09:04:37.514Z,36.27
2022-09-19T09:10:14.630Z,36.69
2022-09-19T09:15:50.611Z,36.57
2022-09-19T09:21:21.912Z,37.53
2022-09-19T09:26:29.035Z,36.82
2022-09-19T09:31:42.289Z,37.07
2022-09-19T09:37:07.724Z,33.79
2022-09-19T09:42:16.178Z,32.35
2022-09-19T09:47:45.458Z,33.66
2022-09-19T09:53:06.311Z,33.12
2022-09-19T09:58:22.381Z,33.21
2022-09-19T10:03:46.136Z,33.67
2022-09-19T10:09:22.945Z,32.96
2022-09-19T10:14:33.216Z,30.23
2022-09-19T10:19:58.149Z,31.18
2022-09-19T10:25:10.848Z,28.23
2022-09-19T10:30:21.014Z,31.34
2022-09-19T10:35:39.781Z,29.50
2022-09-19T10:41:01.553Z,26.76
2022-09-19T10:46:23.585Z,29.02
2022-09-19T10:51:48.677Z,30.91
2022-09-19T10:56:52.502Z,28.67
2022-09-19T11:02:20.879Z,26.37
2022-09-19T11:07:29.526Z,28.46
2022-09-19T11:12:33.872Z,26.86
2022-09-19T11:17:48.528Z,28.05
2022-09-19T11:23:20.315Z,26.24
2022-09-19T11:28:53.081Z,27.30
2022-09-19T11:40:03.507Z,26.03
2022-09-19T11:45:18.591Z,27.68
2022-09-19T11:50:38.446Z,27.83
2022-09-19T11:56:14.381Z,26.06
2022-09-19T12:01:33.011Z,27.59
2022-09-19T12:07:09.227Z,26.73
2022-09-19T12:12:18.308Z,27.51
2022-09-19T12:17:45.335Z,26.03
2022-09-19T12:23:32.764Z,28.05
2022-09-19T12:28:50.048Z,27.37
2022-09-19T12:34:12.598Z,29.05
2022-09-19T12:40:03.165Z,28.67
2022-09-19T12:45:18.347Z,29.56
2022-09-19T12:50:34.992Z,29.25
2022-09-19T12:56:00.849Z,28.53
2022-09-19T13:01:24.413Z,29.95
2022-09-19T13:06:33.903Z,38.00
2022-09-19T13:11:42.976Z,42.66
2022-09-19T13:17:05.240Z,44.14
2022-09-19T13:22:20.436Z,45.35
2022-09-19T13:27:25.802Z,48.50
2022-09-19T13:32:58.540Z,46.88
2022-09-19T13:38:23.923Z,52.17
2022-09-19T13:43:42.757Z,53.36
2022-09-19T13:49:00.258Z,54.70
2022-09-19T13:54:24.435Z,55.15
2022-09-19T13:59:31.285Z,57.48
2022-09-19T14:04:54.611Z,57.12
2022-09-19T14:10:11.833Z,53.32
2022-09-19T14:15:49.512Z,56.15
2022-09-19T14:21:01.023Z,58.66
2022-09-19T14:26:37.552Z,60.48
2022-09-19T14:31:50.288Z,59.98
2022-09-19T14:37:24.514Z,59.01
2022-09-19T14:42:39.904Z,60.71
2022-09-19T14:47:44.642Z,57.74
2022-09-19T14:53:01.663Z,63.68
2022-09-19T14:58:04.971Z,65.52
2022-09-19T15:03:13.179Z,66.47
2022-09-19T15:08:28.556Z,66.98
2022-09-19T15:13:34.660Z,66.32
2022-09-19T15:18:40.093Z,67.10
2022-09-19T15:23:46.619Z,64.58
2022-09-19T15:29:02.574Z,65.29
2022-09-19T15:34:14.662Z,65.20
2022-09-19T15:39:17.796Z,64.48
2022-09-19T15:44:31.320Z,62.63
2022-09-19T15:49:40.330Z,63.36
2022-09-19T15:54:50.344Z,63.49
2022-09-19T15:59:54.500Z,64.84
2022-09-19T16:05:25.911Z,65.62
2022-09-19T16:10:52.850Z,66.25
2022-09-19T16:15:57.955Z,67.38
2022-09-19T16:21:09.255Z,68.30
2022-09-19T16:26:17.658Z,69.69
2022-09-19T16:31:31.243Z,71.36
2022-09-19T16:36:44.108Z,72.67
2022-09-19T16:42:04.186Z,72.94
2022-09-19T16:47:18.540Z,74.13
2022-09-19T16:52:24.696Z,74.90
2022-09-19T16:57:29.135Z,73.74
2022-09-19T17:02:33.659Z,76.35
2022-09-19T17:07:37.574Z,77.32
2022-09-19T17:12:40.799Z,78.72
2022-09-19T17:17:48.340Z,79.66
2022-09-19T17:22:52.392Z,80.38
2022-09-19T17:27:55.726Z,80.62
2022-09-19T17:33:03.474Z,81.11
2022-09-19T17:38:07.889Z,81.76
2022-09-19T17:43:17.702Z,82.23
2022-09-19T17:48:20.898Z,81.99
2022-09-19T17:53:23.827Z,81.86
2022-09-19T17:58:26.686Z,81.06
2022-09-19T18:03:30.166Z,82.21
2022-09-19T18:08:34.186Z,82.89
2022-09-19T18:13:38.072Z,81.93
2022-09-19T18:18:47.870Z,80.79
2022-09-19T18:23:54.814Z,79.35
2022-09-19T18:29:03.334Z,79.47
2022-09-19T18:34:07.978Z,80.28
2022-09-19T18:39:12.781Z,79.03
2022-09-19T18:44:16.894Z,79.37
2022-09-19T18:49:21.443Z,79.92
2022-09-19T18:54:24.790Z,80.34
2022-09-19T18:59:28.853Z,80.69
2022-09-19T19:04:32.122Z,81.20
2022-09-19T19:09:36.874Z,81.18
2022-09-19T19:14:42.800Z,81.34
2022-09-19T19:19:46.650Z,81.54
2022-09-19T19:24:49.603Z,81.94
2022-09-19T19:29:52.499Z,82.43
2022-09-19T19:34:55.940Z,82.54
2022-09-19T19:39:59.108Z,82.94
2022-09-19T19:45:02.538Z,83.50
2022-09-19T19:50:06.563Z,83.65
2022-09-19T19:55:11.245Z,83.52
2022-09-19T20:00:14.708Z,83.01
2022-09-19T20:05:18.320Z,83.11
2022-09-19T20:10:23.296Z,83.03
2022-09-19T20:15:26.185Z,83.10
2022-09-19T20:20:29.518Z,82.28
2022-09-19T20:25:32.392Z,82.11
2022-09-19T20:30:37.551Z,79.68
2022-09-19T20:35:41.039Z,77.81
2022-09-19T20:40:43.964Z,75.84
2022-09-19T20:45:55.505Z,74.85
2022-09-19T20:51:00.956Z,74.04
2022-09-19T20:56:14.040Z,73.43
2022-09-19T21:01:17.194Z,74.52
2022-09-19T21:06:21.478Z,75.34
2022-09-19T21:11:26.853Z,75.58
2022-09-19T21:16:31.565Z,76.19
2022-09-19T21:21:35.446Z,76.40
2022-09-19T21:26:41.749Z,76.93
2022-09-19T21:31:46.734Z,76.66
2022-09-19T21:36:49.732Z,76.93
2022-09-19T21:41:53.034Z,76.97
2022-09-19T21:46:57.539Z,77.74
2022-09-19T21:52:01.015Z,77.89
2022-09-19T21:57:04.346Z,78.18
2022-09-19T22:02:07.677Z,78.69
2022-09-19T22:07:11.165Z,80.13
2022-09-19T22:12:14.459Z,80.52
2022-09-19T22:17:18.069Z,81.68
2022-09-19T22:22:21.199Z,81.33
2022-09-19T22:27:25.140Z,82.43
2022-09-19T22:32:28.213Z,84.42
2022-09-19T22:37:36.546Z,84.63
2022-09-19T22:42:39.687Z,85.32
2022-09-19T22:47:44.019Z,86.03
2022-09-19T22:52:47.278Z,86.58
2022-09-19T22:57:52.982Z,87.65
2022-09-19T23:02:56.420Z,86.80
2022-09-19T23:07:59.480Z,87.64
2022-09-19T23:13:41.291Z,88.77
2022-09-19T23:18:45.117Z,89.25
2022-09-19T23:23:49.928Z,89.49
2022-09-19T23:28:53.639Z,90.35
2022-09-19T23:33:58.596Z,90.80
2022-09-19T23:39:03.713Z,91.26
2022-09-19T23:44:07.471Z,91.76
2022-09-19T23:49:10.916Z,92.66
2022-09-19T23:54:14.043Z,93.30
2022-09-19T23:59:16.986Z,94.03
